map of NHK home
NHK - Airport
Location
City:  Patuxent River, Maryland, United States
Name:NAS Patuxent River
Old (Alt.):Trapnell Field
ICAO:KNHK
IATA:NHK
FAA LID:NHK

Details
Type:Airport (Airfield)
Use:Military
Latitude:3817'11"N (38.286332)
Longitude:7624'36"W (-76.409957)
Datum:WGS 1984
Elevation:38 ft (12 m)
Variation:11.08W (WMM2015 magnetic declination)
-0.01 annual change
Runways:3
Longest:11799 × 200 ft (3596 × 61 m), paved

Time
Time Zone:UTC-5 (DST-4)
Local Time:

Weather
METAR:KNHK 162152Z COR 30006KT 10SM FEW040 BKN260 05/M02 A3018 RMK AO2 SLP221 T00501017

Related Locations
Nearby:
Farthest:YAUG: 11741 mi / 18896 km
Augusta [Augusta Airport], WA, AU

Find:

   beyond  
but within

Other Information
Maps:
NOTAMs:
Links:
Sources:

  
  • flag of United States
  • flag of Maryland
  

Airport Diagram

Airport diagram for NHK

Airport diagram PDF from FAA

Sectional Chart

Flight Planning
at skyvector.com

Satellite Image

Google Maps Satellite view

 

Copyright © 2004-2019 Karl L. Swartz. All rights reserved.
The Great Circle Mapper name and logo are trademarks of the Great Circle Mapper.
All other trademarks mentioned herein belong to their respective owners.
Please see credits for attibutions and further copyright information.

  Follow gcmap on Facebook Follow gcmap on Twitter Follow gcmap on Google+ GCmap on LinkedIn

hCard Microformat

Geo Microformat